createdAt,value
2024-03-05T00:01:35.867Z,19.25
2024-03-05T00:04:47.858Z,17.17
2024-03-05T00:07:59.864Z,24.53
2024-03-05T00:11:13.048Z,20.90
2024-03-05T00:14:25.831Z,20.50
2024-03-05T00:17:37.856Z,26.40
2024-03-05T00:20:40.881Z,20.23
2024-03-05T00:24:04.827Z,16.65
2024-03-05T00:27:04.866Z,18.77
2024-03-05T00:30:30.902Z,17.77
2024-03-05T00:33:42.872Z,21.30
2024-03-05T00:36:55.889Z,22.63
2024-03-05T00:39:55.956Z,18.23
2024-03-05T00:43:08.926Z,19.90
2024-03-05T00:46:22.986Z,16.75
2024-03-05T00:49:35.106Z,17.97
2024-03-05T00:52:35.037Z,20.75
2024-03-05T00:55:47.165Z,17.10
2024-03-05T00:58:47.034Z,19.43
2024-03-05T01:02:13.060Z,19.90
2024-03-05T01:05:12.985Z,24.77
2024-03-05T01:08:25.000Z,29.35
2024-03-05T01:11:25.078Z,21.75
2024-03-05T01:14:37.011Z,21.43
2024-03-05T01:17:51.066Z,20.23
2024-03-05T01:21:03.069Z,19.90
2024-03-05T01:24:03.123Z,19.35
2024-03-05T01:27:16.015Z,18.50
2024-03-05T01:30:16.113Z,24.73
2024-03-05T01:33:43.062Z,24.30
2024-03-05T01:36:43.020Z,20.70
2024-03-05T01:39:55.100Z,18.80
2024-03-05T01:43:07.069Z,17.53
2024-03-05T01:46:32.179Z,19.97
2024-03-05T01:49:46.139Z,17.50
2024-03-05T01:53:11.082Z,17.53
2024-03-05T01:56:23.114Z,18.83
2024-03-05T01:59:47.151Z,20.70
2024-03-05T02:02:59.197Z,16.67
2024-03-05T02:06:25.169Z,16.80
2024-03-05T02:09:25.166Z,19.00
2024-03-05T02:12:37.252Z,26.40
2024-03-05T02:15:37.169Z,25.65
2024-03-05T02:18:50.256Z,17.80
2024-03-05T02:22:04.789Z,17.57
2024-03-05T02:25:19.378Z,18.20
2024-03-05T02:28:32.333Z,17.90
2024-03-05T02:31:56.336Z,19.15
2024-03-05T02:34:56.303Z,19.27
2024-03-05T02:38:22.312Z,30.43
2024-03-05T02:41:22.453Z,17.50
2024-03-05T02:44:34.250Z,14.83
2024-03-05T02:47:34.377Z,18.55
2024-03-05T02:50:47.255Z,17.33
2024-03-05T02:54:01.309Z,18.20
2024-03-05T02:57:27.359Z,17.63
2024-03-05T03:00:33.384Z,30.03
2024-03-05T03:03:46.364Z,22.65
2024-03-05T03:06:48.388Z,18.23
2024-03-05T03:10:14.484Z,26.15
2024-03-05T03:13:14.374Z,27.50
2024-03-05T03:16:38.437Z,17.23
2024-03-05T03:19:38.462Z,29.20
2024-03-05T03:22:50.455Z,28.00
2024-03-05T03:26:04.587Z,26.30
2024-03-05T03:29:16.497Z,33.13
2024-03-05T03:32:16.552Z,31.70
2024-03-05T03:35:29.487Z,18.67
2024-03-05T03:38:29.496Z,16.17
2024-03-05T03:41:56.579Z,21.33
2024-03-05T03:44:56.474Z,19.83
2024-03-05T03:48:09.539Z,20.73
2024-03-05T03:51:09.479Z,18.57
2024-03-05T03:54:21.565Z,19.95
2024-03-05T03:57:35.503Z,22.25
2024-03-05T04:00:47.613Z,19.57
2024-03-05T04:03:59.526Z,19.37
2024-03-05T04:07:11.570Z,19.30
2024-03-05T04:10:24.698Z,17.55
2024-03-05T04:13:38.666Z,38.35
2024-03-05T04:17:04.594Z,28.67
2024-03-05T04:20:17.644Z,18.47
2024-03-05T04:23:29.586Z,35.53
2024-03-05T04:26:41.668Z,35.40
2024-03-05T04:30:09.594Z,18.47
2024-03-05T04:33:09.664Z,19.80
2024-03-05T04:36:22.635Z,17.23
2024-03-05T04:39:23.728Z,17.87
2024-03-05T04:42:36.637Z,16.90
2024-03-05T04:45:51.636Z,20.35
2024-03-05T04:49:06.733Z,17.23
2024-03-05T04:52:06.746Z,21.43
2024-03-05T04:55:32.738Z,15.80
2024-03-05T04:58:32.702Z,20.90
2024-03-05T05:01:58.770Z,17.85
2024-03-05T05:04:58.832Z,21.63
2024-03-05T05:08:10.725Z,20.05
2024-03-05T05:11:10.929Z,14.85
2024-03-05T05:14:22.762Z,17.23
2024-03-05T05:17:36.831Z,18.23
2024-03-05T05:20:51.784Z,16.93
2024-03-05T05:23:51.751Z,14.90
2024-03-05T05:27:04.774Z,22.03
2024-03-05T05:30:09.153Z,16.33
2024-03-05T05:33:30.763Z,21.10
2024-03-05T05:36:30.924Z,32.20
2024-03-05T05:39:43.914Z,18.25
2024-03-05T05:42:43.855Z,26.47
2024-03-05T05:45:56.858Z,40.17
2024-03-05T05:49:10.838Z,35.65
2024-03-05T05:52:23.011Z,25.53
2024-03-05T05:55:23.075Z,27.93
2024-03-05T05:58:34.980Z,21.97
2024-03-05T06:01:35.013Z,23.73
2024-03-05T06:05:02.078Z,22.73
2024-03-05T06:08:02.161Z,35.70
2024-03-05T06:11:14.979Z,19.80
2024-03-05T06:14:26.924Z,33.93
2024-03-05T06:17:39.007Z,20.40
2024-03-05T06:20:51.915Z,22.03
2024-03-05T06:24:04.937Z,19.20
2024-03-05T06:27:04.956Z,15.10
2024-03-05T06:30:29.974Z,20.45
2024-03-05T06:33:30.996Z,19.10
2024-03-05T06:36:58.045Z,19.25
2024-03-05T06:39:57.927Z,17.80
2024-03-05T06:43:17.198Z,15.00
2024-03-05T06:46:29.046Z,23.70
2024-03-05T06:49:42.150Z,18.47
2024-03-05T06:53:01.759Z,20.60
2024-03-05T06:56:19.996Z,17.17
2024-03-05T06:59:20.103Z,21.07
2024-03-05T07:02:32.196Z,22.10
2024-03-05T07:05:32.070Z,20.80
2024-03-05T07:08:58.114Z,16.93
2024-03-05T07:11:58.251Z,20.23
2024-03-05T07:15:11.190Z,26.90
2024-03-05T07:18:11.199Z,16.05
2024-03-05T07:21:24.492Z,18.10
2024-03-05T07:24:38.137Z,21.67
2024-03-05T07:27:51.244Z,17.60
2024-03-05T07:30:52.189Z,27.20
2024-03-05T07:34:04.204Z,26.13
2024-03-05T07:37:04.195Z,21.40
2024-03-05T07:40:30.223Z,21.53
2024-03-05T07:43:30.344Z,25.83
2024-03-05T07:46:54.243Z,20.90
2024-03-05T07:49:54.279Z,23.80
2024-03-05T07:53:07.308Z,22.50
2024-03-05T07:56:21.331Z,29.63
2024-03-05T07:59:33.257Z,34.07
2024-03-05T08:02:33.250Z,30.27
2024-03-05T08:05:48.316Z,39.97
2024-03-05T08:08:48.279Z,30.20
2024-03-05T08:12:14.282Z,27.67
2024-03-05T08:15:15.346Z,24.90
2024-03-05T08:18:27.387Z,32.20
2024-03-05T08:21:27.289Z,30.70
2024-03-05T08:24:40.327Z,33.27
2024-03-05T08:27:54.329Z,33.00
2024-03-05T08:31:07.383Z,29.00
2024-03-05T08:34:07.346Z,39.33
2024-03-05T08:37:21.580Z,37.10
2024-03-05T08:40:34.712Z,41.03
2024-03-05T08:44:00.405Z,34.67
2024-03-05T08:47:01.436Z,33.90
2024-03-05T08:50:25.388Z,30.60
2024-03-05T08:53:25.412Z,31.20
2024-03-05T08:56:37.388Z,34.30
2024-03-05T08:59:51.433Z,30.97
2024-03-05T09:03:04.472Z,28.73
2024-03-05T09:06:05.478Z,31.90
2024-03-05T09:09:18.543Z,27.50
2024-03-05T09:12:19.548Z,28.93
2024-03-05T09:15:45.494Z,36.05
2024-03-05T09:18:45.508Z,28.87
2024-03-05T09:22:10.499Z,35.57
2024-03-05T09:25:10.558Z,36.07
2024-03-05T09:28:35.794Z,32.85
2024-03-05T09:31:49.657Z,31.10
2024-03-05T09:35:01.696Z,26.83
2024-03-05T09:38:01.733Z,31.07
2024-03-05T09:41:28.581Z,41.00
2024-03-05T09:44:40.709Z,30.20
2024-03-05T09:48:06.680Z,31.80
2024-03-05T09:51:18.622Z,31.00
2024-03-05T09:54:30.629Z,25.30
2024-03-05T09:57:42.621Z,31.57
2024-03-05T10:01:07.627Z,29.87
2024-03-05T10:04:33.678Z,35.30
2024-03-05T10:07:51.757Z,33.13
2024-03-05T10:11:15.747Z,30.90
2024-03-05T10:14:28.685Z,35.90
2024-03-05T10:17:54.280Z,31.50
2024-03-05T10:21:07.675Z,38.37
2024-03-05T10:24:31.748Z,37.23
2024-03-05T10:27:51.707Z,37.50
2024-03-05T10:31:15.707Z,32.10
2024-03-05T10:34:15.750Z,44.13
2024-03-05T10:37:41.790Z,38.57
2024-03-05T10:40:54.864Z,36.23
2024-03-05T10:44:19.808Z,35.97
2024-03-05T10:47:31.770Z,37.07
2024-03-05T10:50:55.784Z,36.53
2024-03-05T10:54:09.860Z,32.00
2024-03-05T10:57:21.907Z,38.30
2024-03-05T11:00:21.776Z,40.03
2024-03-05T11:03:46.820Z,34.10
2024-03-05T11:06:58.935Z,39.33
2024-03-05T11:10:24.827Z,42.30
2024-03-05T11:13:36.922Z,38.55
2024-03-05T11:16:48.963Z,37.87
2024-03-05T11:20:02.151Z,42.47
2024-03-05T11:23:29.894Z,38.80
2024-03-05T11:26:45.897Z,35.37
2024-03-05T11:29:58.015Z,41.63
2024-03-05T11:33:10.010Z,38.63
2024-03-05T11:36:41.982Z,39.75
2024-03-05T11:39:42.008Z,45.40
2024-03-05T11:43:11.009Z,40.67
2024-03-05T11:46:11.069Z,38.07
2024-03-05T11:49:35.042Z,36.87
2024-03-05T11:52:47.066Z,41.07
2024-03-05T11:55:59.201Z,44.20
2024-03-05T11:59:13.199Z,46.77
2024-03-05T12:02:37.056Z,42.13
2024-03-05T12:06:01.088Z,44.37
2024-03-05T12:09:13.120Z,42.33
2024-03-05T12:12:37.116Z,41.45
2024-03-05T12:15:51.089Z,41.80
2024-03-05T12:19:03.068Z,34.15
2024-03-05T12:22:15.139Z,39.20
2024-03-05T12:25:28.138Z,35.63
2024-03-05T12:28:28.137Z,36.57
2024-03-05T12:31:53.173Z,34.85
2024-03-05T12:35:05.192Z,35.80
2024-03-05T12:38:29.061Z,31.95
2024-03-05T12:41:43.139Z,33.37
2024-03-05T12:45:09.596Z,30.90
2024-03-05T12:48:24.151Z,33.37
2024-03-05T12:51:36.176Z,26.00
2024-03-05T12:54:36.205Z,37.30
2024-03-05T12:58:00.177Z,29.63
2024-03-05T13:01:00.274Z,30.97
2024-03-05T13:04:26.279Z,30.23
2024-03-05T13:07:26.221Z,28.47
2024-03-05T13:10:50.391Z,30.47
2024-03-05T13:13:50.312Z,30.57
2024-03-05T13:17:05.322Z,29.57
2024-03-05T13:20:19.316Z,32.53
2024-03-05T13:23:33.277Z,25.40
2024-03-05T13:26:46.301Z,25.80
2024-03-05T13:30:05.913Z,20.37
2024-03-05T13:33:11.296Z,25.27
2024-03-05T13:36:38.356Z,20.87
2024-03-05T13:39:39.304Z,22.00
2024-03-05T13:43:03.279Z,27.83
2024-03-05T13:46:03.352Z,26.67
2024-03-05T13:49:15.377Z,21.20
2024-03-05T13:52:29.478Z,21.80
2024-03-05T13:55:41.400Z,20.43
2024-03-05T13:58:41.456Z,19.70
2024-03-05T14:01:55.402Z,16.27
2024-03-05T14:05:07.533Z,15.50
2024-03-05T14:08:21.410Z,19.20
2024-03-05T14:11:34.564Z,15.40
2024-03-05T14:14:34.367Z,16.10
2024-03-05T14:17:46.518Z,14.97
2024-03-05T14:20:46.452Z,10.80
2024-03-05T14:24:12.541Z,17.30
2024-03-05T14:27:13.470Z,17.10
2024-03-05T14:30:31.492Z,10.40
2024-03-05T14:33:31.527Z,10.37
2024-03-05T14:36:43.550Z,14.47
2024-03-05T14:39:57.527Z,15.17
2024-03-05T14:43:09.528Z,14.00
2024-03-05T14:46:09.571Z,12.83
2024-03-05T14:49:22.638Z,12.23
2024-03-05T14:52:22.614Z,12.15
2024-03-05T14:55:49.662Z,11.53
2024-03-05T14:58:49.624Z,10.73
2024-03-05T15:02:05.798Z,9.90
2024-03-05T15:05:05.682Z,9.33
2024-03-05T15:08:18.625Z,10.90
2024-03-05T15:11:31.624Z,11.50
2024-03-05T15:14:56.650Z,10.30
2024-03-05T15:18:08.688Z,13.07
2024-03-05T15:21:23.773Z,9.60
2024-03-05T15:24:23.693Z,11.07
2024-03-05T15:28:00.986Z,13.37
2024-03-05T15:30:50.664Z,13.85
2024-03-05T15:34:03.741Z,13.90
2024-03-05T15:37:05.578Z,9.47
2024-03-05T15:40:19.748Z,15.45
2024-03-05T15:43:32.734Z,13.17
2024-03-05T15:46:44.792Z,15.57
2024-03-05T15:49:44.772Z,16.17
2024-03-05T15:53:09.943Z,13.80
2024-03-05T15:56:15.884Z,12.87
2024-03-05T15:59:48.496Z,13.47
2024-03-05T16:02:48.829Z,14.07
2024-03-05T16:06:06.988Z,14.97
2024-03-05T16:09:01.770Z,17.20
2024-03-05T16:12:15.858Z,13.20
2024-03-05T16:15:29.864Z,21.65
2024-03-05T16:18:41.899Z,19.30
2024-03-05T16:21:41.894Z,24.27
2024-03-05T16:25:06.833Z,17.53
2024-03-05T16:28:18.818Z,21.07
2024-03-05T16:31:44.834Z,20.40
2024-03-05T16:34:44.998Z,23.60
2024-03-05T16:38:09.979Z,25.15
2024-03-05T16:41:09.998Z,23.87
2024-03-05T16:44:21.914Z,20.57
2024-03-05T16:47:35.921Z,22.17
2024-03-05T16:50:47.878Z,21.60
2024-03-05T16:53:49.129Z,20.03
2024-03-05T16:57:01.029Z,19.30
2024-03-05T17:00:00.976Z,22.97
2024-03-05T17:03:27.965Z,23.87
2024-03-05T17:06:27.985Z,20.93
2024-03-05T17:09:43.032Z,20.87
2024-03-05T17:12:44.985Z,24.67
2024-03-05T17:15:57.979Z,20.25
2024-03-05T17:19:12.052Z,20.20
2024-03-05T17:22:38.076Z,20.57
2024-03-05T17:25:38.180Z,20.73
2024-03-05T17:28:50.080Z,21.70
2024-03-05T17:31:50.147Z,21.30
2024-03-05T17:35:16.096Z,20.63
2024-03-05T17:38:16.102Z,18.70
2024-03-05T17:41:29.112Z,21.20
2024-03-05T17:44:29.061Z,21.50
2024-03-05T17:47:41.098Z,21.85
2024-03-05T17:50:55.150Z,18.35
2024-03-05T17:54:19.174Z,20.13
2024-03-05T17:57:21.122Z,17.35
2024-03-05T18:00:48.285Z,21.95
2024-03-05T18:04:00.129Z,25.97
2024-03-05T18:07:17.209Z,21.00
2024-03-05T18:10:31.211Z,25.15
2024-03-05T18:13:31.278Z,18.90
2024-03-05T18:16:55.245Z,21.80
2024-03-05T18:19:55.252Z,21.35
2024-03-05T18:23:21.217Z,25.47
2024-03-05T18:26:21.251Z,21.20
2024-03-05T18:29:33.181Z,18.23
2024-03-05T18:32:33.230Z,24.07
2024-03-05T18:35:59.221Z,21.33
2024-03-05T18:39:13.310Z,19.27
2024-03-05T18:42:26.236Z,18.80
2024-03-05T18:45:38.259Z,21.37
2024-03-05T18:48:50.318Z,20.70
2024-03-05T18:51:50.325Z,24.47
2024-03-05T19:00:18.347Z,24.50
2024-03-05T19:03:42.337Z,21.77
